Norfolk, Massachusetts
Current Conditions -  °F | °C
As of 1:53 PM on Sunday 21 Dec 2014 (Local Time) from KOWD Reporting Station
Overcast Overcast  
Wind Chill: 28°   Ceiling: 1400
Heat Index: 33°   Visibility: 10mi
Dew Point: 27°   Wind: 6mph
Humidity: 78%   Direction: 340°NNW
Pressure: 30.29"   Gusts: NA
Location:  42.12°N, 71.32°W
Report Text: KOWD 211853Z 34005KT 10SM OVC014 01/M03 A3029 RMK AO2 SLP258 T00061028
Loading
Personal Weather Stations






























Interactive Weather Map New forecast layout! Learn more

10-Day Weather Forecast

Advertisements
Track Severe Weather on mobile